Time;durP1;ratioP1;P1;durP2;ratioP2;P2;SDS_P1;SDS_P2;PMS_P1;PMS_P2;Temp;Humidity;BMP_temperature;BMP_pressure;BME280_temperature;BME280_humidity;BME280_pressure;Samples;Min_cycle;Max_cycle;Signal;HPM_P1;HPM_P2
2024/04/01 00:01:04;;;;;;;26.92;21.17;;;10.20;99.90;;;;;;7371421;19;20952;-64
2024/04/01 00:03:30;;;;;;;27.30;19.45;;;10.30;99.90;;;;;;7370994;19;20690;-64
2024/04/01 00:05:58;;;;;;;21.23;19.02;;;10.30;99.90;;;;;;7368612;19;20010;-61
2024/04/01 00:08:25;;;;;;;24.17;20.15;;;10.40;99.90;;;;;;7371471;19;20437;-61
2024/04/01 00:10:52;;;;;;;20.48;17.83;;;10.40;99.90;;;;;;7369821;19;20028;-61
2024/04/01 00:13:19;;;;;;;19.50;16.48;;;10.50;99.90;;;;;;7370780;19;20037;-64
2024/04/01 00:15:45;;;;;;;20.67;16.85;;;10.50;99.90;;;;;;7369726;19;20039;-61
2024/04/01 00:18:12;;;;;;;19.42;16.63;;;10.50;99.90;;;;;;7371069;19;20022;-61
2024/04/01 00:20:39;;;;;;;18.55;15.38;;;10.40;99.90;;;;;;7370289;19;20020;-61
2024/04/01 00:23:05;;;;;;;17.58;15.60;;;10.40;99.90;;;;;;7370667;19;20026;-61
2024/04/01 00:25:33;;;;;;;19.17;14.77;;;10.40;99.90;;;;;;7371074;19;20052;-64
2024/04/01 00:28:00;;;;;;;21.52;15.50;;;10.40;99.90;;;;;;7369458;19;20023;-63
2024/04/01 00:30:26;;;;;;;18.25;14.43;;;10.40;99.90;;;;;;7372565;19;20018;-64
2024/04/01 00:32:52;;;;;;;19.42;13.50;;;10.40;99.90;;;;;;7369714;19;20390;-64
2024/04/01 00:35:18;;;;;;;18.58;13.95;;;10.40;99.90;;;;;;7366097;19;20030;-64
2024/04/01 00:37:44;;;;;;;20.15;13.68;;;10.40;99.90;;;;;;7372012;19;20014;-64
2024/04/01 00:40:11;;;;;;;16.60;14.20;;;10.50;99.90;;;;;;7365753;19;20022;-64
2024/04/01 00:42:38;;;;;;;20.35;14.68;;;10.50;99.90;;;;;;7369646;19;20042;-65
2024/04/01 00:45:05;;;;;;;18.38;15.05;;;10.50;99.90;;;;;;7366928;19;20019;-64
2024/04/01 00:47:32;;;;;;;16.83;13.80;;;10.50;99.90;;;;;;7368652;19;20026;-64
2024/04/01 00:49:58;;;;;;;19.67;14.77;;;10.50;99.90;;;;;;7369022;19;20090;-66
2024/04/01 00:52:27;;;;;;;17.05;14.05;;;10.50;99.90;;;;;;7366874;19;20238;-64
2024/04/01 00:54:55;;;;;;;17.15;14.45;;;10.40;99.90;;;;;;7366261;19;20022;-62
2024/04/01 00:57:22;;;;;;;17.42;12.93;;;10.30;99.90;;;;;;7369956;19;20019;-64
2024/04/01 00:59:51;;;;;;;15.88;13.20;;;10.30;99.90;;;;;;7365644;19;20062;-61
2024/04/01 01:02:19;;;;;;;16.85;12.80;;;10.30;99.90;;;;;;7364279;19;20561;-61
2024/04/01 01:04:49;;;;;;;16.83;13.15;;;10.20;99.90;;;;;;7369838;19;20812;-64
2024/04/01 01:07:15;;;;;;;18.40;13.40;;;10.20;99.90;;;;;;7362644;19;20031;-64
2024/04/01 01:09:42;;;;;;;18.25;13.80;;;10.10;99.90;;;;;;7368789;19;20018;-64
2024/04/01 01:12:08;;;;;;;18.10;13.50;;;10.10;99.90;;;;;;7357168;19;20101;-64
2024/04/01 01:14:34;;;;;;;18.08;13.32;;;10.00;99.90;;;;;;7366179;19;20022;-61
2024/04/01 01:17:01;;;;;;;16.58;13.68;;;10.00;99.90;;;;;;7367569;19;20065;-61
2024/04/01 01:19:27;;;;;;;22.08;14.43;;;10.00;99.90;;;;;;7367151;19;20772;-64
2024/04/01 01:22:06;;;;;;;15.45;13.85;;;9.90;99.90;;;;;;7367642;19;20058;-61
2024/04/01 01:24:32;;;;;;;16.23;13.93;;;9.90;99.90;;;;;;7364362;19;20015;-64
2024/04/01 01:27:01;;;;;;;18.83;14.07;;;9.80;99.90;;;;;;7366690;19;20744;-64
2024/04/01 01:29:29;;;;;;;18.20;14.20;;;9.70;99.90;;;;;;7368297;19;20022;-61
2024/04/01 01:32:00;;;;;;;19.55;14.23;;;9.70;99.90;;;;;;7366187;19;20661;-63
2024/04/01 01:34:29;;;;;;;19.55;15.00;;;9.70;99.90;;;;;;7365141;19;20021;-64
2024/04/01 01:36:56;;;;;;;21.30;15.68;;;9.70;99.90;;;;;;7366742;19;20026;-62
2024/04/01 01:39:22;;;;;;;19.02;15.35;;;9.70;99.90;;;;;;7363258;19;20035;-63
2024/04/01 01:41:49;;;;;;;16.92;15.23;;;9.70;99.90;;;;;;7364688;19;20019;-64
2024/04/01 01:44:15;;;;;;;17.58;14.90;;;9.70;99.90;;;;;;7365247;19;20078;-61
2024/04/01 01:46:41;;;;;;;20.30;15.23;;;9.60;99.90;;;;;;7363962;19;20019;-61
2024/04/01 01:49:07;;;;;;;19.10;15.65;;;9.60;99.90;;;;;;7371670;19;20022;-61
2024/04/01 01:51:34;;;;;;;17.52;14.88;;;9.50;99.90;;;;;;7371635;19;20026;-64
2024/04/01 01:54:00;;;;;;;17.27;14.98;;;9.40;99.90;;;;;;7369153;19;20107;-64
2024/04/01 01:56:28;;;;;;;18.25;16.33;;;9.40;99.90;;;;;;7375585;19;20019;-61
2024/04/01 01:58:54;;;;;;;20.63;16.92;;;9.40;99.90;;;;;;7371920;19;20023;-61
2024/04/01 02:01:20;;;;;;;18.67;16.52;;;9.40;99.90;;;;;;7372189;19;20041;-64
2024/04/01 02:03:46;;;;;;;19.23;17.23;;;9.40;99.90;;;;;;7373883;19;20022;-64
2024/04/01 02:06:14;;;;;;;21.98;17.98;;;9.30;99.90;;;;;;7371543;19;20019;-64
2024/04/01 02:08:40;;;;;;;24.65;19.17;;;9.30;99.90;;;;;;7372286;19;20064;-63
2024/04/01 02:11:12;;;;;;;22.80;20.25;;;9.20;99.90;;;;;;7372660;19;20553;-64
2024/04/01 02:13:39;;;;;;;21.50;19.05;;;9.20;99.90;;;;;;7370174;19;20386;-61
2024/04/01 02:16:10;;;;;;;20.70;18.30;;;9.10;99.90;;;;;;7373576;19;20023;-64
2024/04/01 02:18:36;;;;;;;22.58;19.38;;;9.10;99.90;;;;;;7373713;19;20022;-62
2024/04/01 02:21:03;;;;;;;22.77;18.83;;;9.10;99.90;;;;;;7370242;19;20018;-64
2024/04/01 02:23:31;;;;;;;22.52;20.08;;;9.10;99.90;;;;;;7373234;19;20023;-64
2024/04/01 02:26:00;;;;;;;26.17;20.40;;;9.10;99.90;;;;;;7374676;19;20437;-61
2024/04/01 02:28:27;;;;;;;23.17;20.45;;;9.10;99.90;;;;;;7371178;19;20086;-64
2024/04/01 02:30:53;;;;;;;24.85;21.45;;;9.10;99.90;;;;;;7365162;19;20040;-64
2024/04/01 02:33:20;;;;;;;23.95;20.95;;;9.10;99.90;;;;;;7369487;19;20026;-61
2024/04/01 02:35:46;;;;;;;30.80;23.20;;;9.10;99.90;;;;;;7367592;19;20029;-65
2024/04/01 02:38:12;;;;;;;27.10;21.02;;;9.10;99.90;;;;;;7371326;19;20022;-64
2024/04/01 02:40:38;;;;;;;25.25;22.33;;;9.00;99.90;;;;;;7373767;19;20019;-64
2024/04/01 02:43:04;;;;;;;24.73;22.23;;;9.00;99.90;;;;;;7370066;19;20023;-64
2024/04/01 02:45:31;;;;;;;25.10;22.45;;;9.00;99.90;;;;;;7373916;19;20564;-61
2024/04/01 02:47:57;;;;;;;25.98;23.00;;;9.00;99.90;;;;;;7370810;19;20025;-63
2024/04/01 02:50:23;;;;;;;28.85;23.88;;;9.00;99.90;;;;;;7374548;19;20745;-64
2024/04/01 02:52:49;;;;;;;28.50;25.10;;;9.00;99.90;;;;;;7371826;19;20028;-64
2024/04/01 02:55:19;;;;;;;28.67;25.58;;;9.00;99.90;;;;;;7371345;19;20081;-61
2024/04/01 02:57:46;;;;;;;28.55;25.45;;;9.00;99.90;;;;;;7368932;19;20018;-63
2024/04/01 03:00:19;;;;;;;29.40;26.50;;;9.00;99.90;;;;;;7372037;19;20019;-61
2024/04/01 03:02:46;;;;;;;29.45;24.67;;;9.00;99.90;;;;;;7372576;19;20438;-61
2024/04/01 03:05:17;;;;;;;29.55;25.92;;;9.00;99.90;;;;;;7369845;19;20037;-64
2024/04/01 03:07:45;;;;;;;29.85;26.73;;;9.00;99.90;;;;;;7370721;19;20014;-64
2024/04/01 03:10:12;;;;;;;33.55;27.27;;;9.00;99.90;;;;;;7367813;19;20026;-63
2024/04/01 03:12:45;;;;;;;34.25;28.83;;;9.00;99.90;;;;;;7372048;19;20018;-61
2024/04/01 03:15:16;;;;;;;33.38;29.35;;;9.00;99.90;;;;;;7371497;19;20010;-61
2024/04/01 03:17:43;;;;;;;34.90;27.80;;;9.00;99.90;;;;;;7373771;19;20023;-62
2024/04/01 03:20:11;;;;;;;33.92;30.27;;;9.00;99.90;;;;;;7373226;19;20029;-64
2024/04/01 03:22:40;;;;;;;34.08;30.45;;;9.00;99.90;;;;;;7375962;19;20047;-64
2024/04/01 03:25:06;;;;;;;34.25;29.95;;;9.00;99.90;;;;;;7373324;19;20019;-64
2024/04/01 03:27:33;;;;;;;33.38;29.58;;;8.90;99.90;;;;;;7374702;19;20027;-64
2024/04/01 03:30:00;;;;;;;34.72;30.63;;;8.90;99.90;;;;;;7373444;19;20018;-62
2024/04/01 03:32:26;;;;;;;37.40;31.65;;;8.90;99.90;;;;;;7374966;19;20021;-62
2024/04/01 03:34:53;;;;;;;33.80;30.15;;;8.90;99.90;;;;;;7372468;19;20063;-62
2024/04/01 03:37:19;;;;;;;34.78;30.88;;;8.90;99.90;;;;;;7372212;19;20019;-62
2024/04/01 03:39:46;;;;;;;37.28;30.40;;;8.90;99.90;;;;;;7373461;19;20386;-60
2024/04/01 03:42:13;;;;;;;34.25;30.58;;;8.90;99.90;;;;;;7371908;19;20522;-60
2024/04/01 03:44:40;;;;;;;35.03;31.38;;;8.90;99.90;;;;;;7374687;19;20109;-60
2024/04/01 03:47:07;;;;;;;35.70;31.67;;;8.90;99.90;;;;;;7373262;19;20018;-64
2024/04/01 03:49:34;;;;;;;36.10;32.20;;;9.00;99.90;;;;;;7371802;19;20022;-63
2024/04/01 03:52:00;;;;;;;36.40;32.53;;;8.90;99.90;;;;;;7373203;19;20130;-61
2024/04/01 03:54:26;;;;;;;37.60;33.30;;;9.00;99.90;;;;;;7371692;19;20022;-61
2024/04/01 03:56:53;;;;;;;37.83;34.05;;;9.00;99.90;;;;;;7375476;19;20027;-63
2024/04/01 03:59:19;;;;;;;36.67;32.63;;;9.00;99.90;;;;;;7373810;19;20014;-60
2024/04/01 04:01:45;;;;;;;38.47;34.40;;;9.00;99.90;;;;;;7373023;19;20030;-60
2024/04/01 04:04:11;;;;;;;41.17;34.92;;;9.00;99.90;;;;;;7369456;19;20018;-63
2024/04/01 04:06:38;;;;;;;40.72;34.70;;;8.90;99.90;;;;;;7372209;19;20018;-63
2024/04/01 04:09:05;;;;;;;36.95;33.00;;;8.90;99.90;;;;;;7372551;19;20050;-61
2024/04/01 04:11:31;;;;;;;37.85;33.85;;;8.80;99.90;;;;;;7371280;19;20056;-60
2024/04/01 04:14:05;;;;;;;37.38;33.40;;;8.80;99.90;;;;;;7370419;19;20022;-60
2024/04/01 04:16:31;;;;;;;39.60;35.58;;;8.70;99.90;;;;;;7369459;19;21263;-63
2024/04/01 04:18:57;;;;;;;37.45;33.65;;;8.80;99.90;;;;;;7373992;19;20837;-63
2024/04/01 04:21:23;;;;;;;37.65;33.63;;;8.70;99.90;;;;;;7373060;19;20047;-64
2024/04/01 04:23:49;;;;;;;37.95;33.92;;;8.70;99.90;;;;;;7368061;19;20594;-60
2024/04/01 04:26:16;;;;;;;39.95;36.08;;;8.70;99.90;;;;;;7369194;19;20018;-60
2024/04/01 04:28:42;;;;;;;39.67;35.53;;;8.70;99.90;;;;;;7368216;19;20365;-61
2024/04/01 04:31:09;;;;;;;38.75;34.75;;;8.70;99.90;;;;;;7367611;19;20020;-60
2024/04/01 04:33:35;;;;;;;38.72;35.00;;;8.60;99.90;;;;;;7364564;19;20588;-60
2024/04/01 04:36:03;;;;;;;40.33;35.97;;;8.60;99.90;;;;;;7361955;19;20050;-63
2024/04/01 04:38:33;;;;;;;40.63;36.37;;;8.60;99.90;;;;;;7366109;19;20792;-60
2024/04/01 04:40:59;;;;;;;39.45;35.15;;;8.60;99.90;;;;;;7369971;19;20302;-60
2024/04/01 04:43:25;;;;;;;37.17;33.30;;;8.50;99.90;;;;;;7365170;19;20097;-60
2024/04/01 04:45:51;;;;;;;38.35;34.53;;;8.50;99.90;;;;;;7367354;19;20036;-60
2024/04/01 04:48:17;;;;;;;41.15;36.08;;;8.50;99.90;;;;;;7362137;19;20015;-60
2024/04/01 04:50:43;;;;;;;41.00;36.53;;;8.50;99.90;;;;;;7371925;19;20018;-60
2024/04/01 04:53:09;;;;;;;41.22;36.00;;;8.50;99.90;;;;;;7367449;19;20023;-60
2024/04/01 04:55:35;;;;;;;42.05;37.35;;;8.50;99.90;;;;;;7367205;19;20026;-60
2024/04/01 04:58:01;;;;;;;41.78;37.47;;;8.50;99.90;;;;;;7369954;19;20606;-60
2024/04/01 05:00:28;;;;;;;43.35;38.97;;;8.50;99.90;;;;;;7363506;19;20018;-61
2024/04/01 05:02:54;;;;;;;42.67;37.47;;;8.50;99.90;;;;;;7367410;19;20018;-63
2024/04/01 05:05:20;;;;;;;43.90;39.25;;;8.50;99.90;;;;;;7358817;19;20028;-60
2024/04/01 05:07:48;;;;;;;44.97;40.00;;;8.50;99.90;;;;;;7364040;19;20036;-60
2024/04/01 05:10:15;;;;;;;43.92;38.63;;;8.50;99.90;;;;;;7366857;19;20025;-63
2024/04/01 05:12:44;;;;;;;46.15;41.25;;;8.50;99.90;;;;;;7369970;19;20108;-61
2024/04/01 05:15:10;;;;;;;45.63;40.83;;;8.40;99.90;;;;;;7366252;19;20022;-60
2024/04/01 05:17:37;;;;;;;45.40;40.72;;;8.50;99.90;;;;;;7367351;19;20014;-60
2024/04/01 05:20:07;;;;;;;48.67;43.53;;;8.50;99.90;;;;;;7365270;19;20015;-60
2024/04/01 05:22:33;;;;;;;44.78;40.28;;;8.50;99.90;;;;;;7375158;19;20029;-60
2024/04/01 05:25:00;;;;;;;43.80;39.28;;;8.50;99.90;;;;;;7371654;19;20018;-60
2024/04/01 05:27:26;;;;;;;46.25;41.50;;;8.50;99.90;;;;;;7378911;19;20021;-60
2024/04/01 05:30:10;;;;;;;44.70;40.25;;;8.50;99.90;;;;;;7375846;19;20022;-62
2024/04/01 05:32:38;;;;;;;44.65;40.13;;;8.60;99.90;;;;;;7379558;19;20101;-63
2024/04/01 05:35:05;;;;;;;44.30;39.58;;;8.50;99.90;;;;;;7373796;19;20018;-60
2024/04/01 05:37:35;;;;;;;43.53;39.03;;;8.50;99.90;;;;;;7374857;19;20034;-60
2024/04/01 05:40:01;;;;;;;43.58;39.03;;;8.50;99.90;;;;;;7374279;19;20025;-62
2024/04/01 05:42:28;;;;;;;46.53;41.72;;;8.60;99.90;;;;;;7374074;19;20622;-60
2024/04/01 05:44:54;;;;;;;43.47;37.92;;;8.60;99.90;;;;;;7373934;19;20013;-64
2024/04/01 05:47:20;;;;;;;44.55;39.92;;;8.60;99.90;;;;;;7376345;19;20684;-61
2024/04/01 05:49:47;;;;;;;45.38;40.90;;;8.60;99.90;;;;;;7374821;19;20026;-63
2024/04/01 05:52:14;;;;;;;47.85;43.03;;;8.60;99.90;;;;;;7377105;19;20022;-63
2024/04/01 05:54:40;;;;;;;45.17;40.50;;;8.70;99.90;;;;;;7376066;19;20018;-62
2024/04/01 05:57:06;;;;;;;43.63;39.08;;;8.70;99.90;;;;;;7372785;19;21161;-63
2024/04/01 05:59:33;;;;;;;46.08;40.92;;;8.70;99.90;;;;;;7374506;19;20023;-64
2024/04/01 06:01:59;;;;;;;44.00;39.65;;;8.70;99.90;;;;;;7372677;19;20007;-61
2024/04/01 06:04:25;;;;;;;43.38;38.83;;;8.70;99.90;;;;;;7369954;19;20118;-61
2024/04/01 06:06:52;;;;;;;45.67;40.97;;;8.70;99.90;;;;;;7374803;19;20053;-61
2024/04/01 06:09:18;;;;;;;45.92;39.30;;;8.80;99.90;;;;;;7372476;19;20035;-62
2024/04/01 06:11:45;;;;;;;44.67;40.30;;;8.80;99.90;;;;;;7369483;19;20027;-61
2024/04/01 06:14:11;;;;;;;45.45;40.75;;;8.80;99.90;;;;;;7367410;19;20022;-61
2024/04/01 06:16:39;;;;;;;46.55;41.88;;;8.90;99.90;;;;;;7372908;19;20032;-61
2024/04/01 06:19:06;;;;;;;49.58;44.08;;;8.90;99.90;;;;;;7372070;19;20569;-61
2024/04/01 06:21:32;;;;;;;47.38;42.63;;;9.00;99.90;;;;;;7374815;19;20486;-64
2024/04/01 06:23:58;;;;;;;47.85;43.22;;;9.00;99.90;;;;;;7373046;19;20104;-61
2024/04/01 06:26:27;;;;;;;50.47;45.13;;;9.10;99.90;;;;;;7370951;19;20039;-61
2024/04/01 06:28:55;;;;;;;46.72;41.70;;;9.10;99.90;;;;;;7372292;19;20723;-61
2024/04/01 06:31:21;;;;;;;46.55;41.72;;;9.10;99.90;;;;;;7371013;19;20081;-61
2024/04/01 06:33:48;;;;;;;49.88;45.05;;;9.30;99.90;;;;;;7374198;19;20875;-61
2024/04/01 06:36:14;;;;;;;48.97;43.75;;;9.30;99.90;;;;;;7371185;19;20018;-61
2024/04/01 06:38:40;;;;;;;48.08;42.65;;;9.40;99.90;;;;;;7374530;19;20030;-65
2024/04/01 06:41:48;;;;;;;45.22;40.65;;;9.40;99.90;;;;;;7373067;19;20478;-60
2024/04/01 06:44:16;;;;;;;49.33;44.25;;;9.50;99.90;;;;;;7369748;19;20185;-64
2024/04/01 06:46:42;;;;;;;44.85;40.10;;;9.60;99.90;;;;;;7372999;19;20015;-64
2024/04/01 06:49:09;;;;;;;45.83;41.08;;;9.60;99.90;;;;;;7371375;19;20035;-69
2024/04/01 06:51:35;;;;;;;45.60;40.70;;;9.70;99.90;;;;;;7366267;19;21054;-64
2024/04/01 06:54:02;;;;;;;44.60;40.05;;;9.80;99.90;;;;;;7372435;19;20022;-61
2024/04/01 06:56:29;;;;;;;43.20;38.70;;;9.90;99.90;;;;;;7370780;19;20044;-66
2024/04/01 06:58:55;;;;;;;41.85;37.08;;;9.90;99.90;;;;;;7372459;19;20015;-61
2024/04/01 07:01:21;;;;;;;41.50;37.08;;;10.00;99.90;;;;;;7367875;19;20019;-65
2024/04/01 07:03:47;;;;;;;39.10;35.25;;;10.10;99.90;;;;;;7372707;19;20663;-61
2024/04/01 07:06:13;;;;;;;38.75;34.75;;;10.10;99.90;;;;;;7366107;19;20364;-62
2024/04/01 07:08:40;;;;;;;37.10;33.17;;;10.20;99.90;;;;;;7369158;19;20035;-61
2024/04/01 07:11:06;;;;;;;36.38;32.47;;;10.30;99.90;;;;;;7367483;19;20056;-64
2024/04/01 07:13:32;;;;;;;36.03;32.38;;;10.30;99.90;;;;;;7374265;19;20028;-65
2024/04/01 07:15:58;;;;;;;35.25;31.75;;;10.40;99.90;;;;;;7370643;19;20512;-62
2024/04/01 07:18:25;;;;;;;35.22;31.80;;;10.50;99.90;;;;;;7367492;19;20025;-64
2024/04/01 07:20:52;;;;;;;35.60;31.98;;;10.50;99.90;;;;;;7374897;19;20018;-64
2024/04/01 07:23:18;;;;;;;34.22;31.08;;;10.50;99.90;;;;;;7372648;19;21048;-61
2024/04/01 07:25:45;;;;;;;34.90;31.38;;;10.50;99.90;;;;;;7372870;19;20022;-63
2024/04/01 07:28:12;;;;;;;35.10;31.50;;;10.50;99.90;;;;;;7366426;19;20018;-62
2024/04/01 07:30:38;;;;;;;36.05;29.92;;;10.50;99.90;;;;;;7365807;19;20813;-61
2024/04/01 07:33:05;;;;;;;35.03;31.20;;;10.40;99.90;;;;;;7370678;19;20022;-62
2024/04/01 07:35:32;;;;;;;31.52;28.40;;;10.40;99.90;;;;;;7370357;19;20065;-61
2024/04/01 07:37:58;;;;;;;33.63;30.20;;;10.40;99.90;;;;;;7376495;19;20025;-65
2024/04/01 07:40:27;;;;;;;33.55;30.00;;;10.40;99.90;;;;;;7365983;19;20019;-61
2024/04/01 07:42:53;;;;;;;34.88;31.33;;;10.40;99.90;;;;;;7374474;19;20057;-61
2024/04/01 07:45:19;;;;;;;63.75;57.08;;;10.40;99.90;;;;;;7373430;19;20018;-64
2024/04/01 07:47:45;;;;;;;35.33;31.75;;;10.40;99.90;;;;;;7374214;19;20018;-63
2024/04/01 07:50:12;;;;;;;36.08;32.55;;;10.40;99.90;;;;;;7367979;19;20383;-60
2024/04/01 07:52:39;;;;;;;210.98;187.70;;;10.40;99.90;;;;;;7373957;19;21482;-62
2024/04/01 07:55:06;;;;;;;36.10;32.40;;;10.40;99.90;;;;;;7368108;19;20029;-64
2024/04/01 07:57:32;;;;;;;36.78;32.80;;;10.50;99.90;;;;;;7367867;19;20026;-61
2024/04/01 07:59:59;;;;;;;37.10;33.25;;;10.40;99.90;;;;;;7366503;19;20018;-60
2024/04/01 08:02:26;;;;;;;35.50;31.85;;;10.40;99.90;;;;;;7370429;19;20018;-61
2024/04/01 08:04:52;;;;;;;35.05;31.55;;;10.40;99.90;;;;;;7364974;19;20057;-62
2024/04/01 08:07:18;;;;;;;35.08;31.55;;;10.40;99.90;;;;;;7371494;19;20023;-61
2024/04/01 08:09:45;;;;;;;36.80;32.97;;;10.30;99.90;;;;;;7366923;19;20742;-61
2024/04/01 08:12:11;;;;;;;37.78;34.00;;;10.30;99.90;;;;;;7369045;19;20023;-61
2024/04/01 08:14:37;;;;;;;37.53;33.88;;;10.40;99.90;;;;;;7366853;19;20019;-61
2024/04/01 08:17:04;;;;;;;37.13;33.45;;;10.40;99.90;;;;;;7368484;19;20030;-61
2024/04/01 08:19:30;;;;;;;38.08;34.40;;;10.40;99.90;;;;;;7373463;19;20748;-61
2024/04/01 08:21:57;;;;;;;37.15;33.53;;;10.40;99.90;;;;;;7372780;19;20127;-61
2024/04/01 08:24:23;;;;;;;35.97;32.28;;;10.50;99.90;;;;;;7364315;19;20022;-61
2024/04/01 08:26:50;;;;;;;35.03;31.40;;;10.50;99.90;;;;;;7373008;19;20019;-60
2024/04/01 08:29:17;;;;;;;35.83;32.17;;;10.50;99.90;;;;;;7364637;19;20022;-58
2024/04/01 08:31:43;;;;;;;40.03;35.15;;;10.50;99.90;;;;;;7372210;19;20029;-68
2024/04/01 08:34:10;;;;;;;36.40;32.78;;;10.60;99.90;;;;;;7370520;19;20026;-68
2024/04/01 08:36:37;;;;;;;36.25;32.47;;;10.60;99.90;;;;;;7368103;19;20022;-67
2024/04/01 08:39:03;;;;;;;34.78;31.25;;;10.60;99.90;;;;;;7366303;19;20815;-68
2024/04/01 08:41:40;;;;;;;36.08;32.40;;;10.60;99.90;;;;;;7368483;19;20011;-68
2024/04/01 08:44:13;;;;;;;39.08;35.00;;;10.60;99.90;;;;;;7365893;19;20033;-65
2024/04/01 08:46:45;;;;;;;35.78;32.17;;;10.70;99.90;;;;;;7373229;19;20015;-66
2024/04/01 08:49:12;;;;;;;34.42;30.83;;;10.60;99.90;;;;;;7373139;19;20018;-65
2024/04/01 08:51:39;;;;;;;35.67;32.00;;;10.60;99.90;;;;;;7369908;19;21036;-65
2024/04/01 08:54:08;;;;;;;38.35;34.60;;;10.60;99.90;;;;;;7369781;19;20403;-65
2024/04/01 08:56:40;;;;;;;43.75;39.25;;;10.60;99.90;;;;;;7375341;19;20026;-64
2024/04/01 08:59:07;;;;;;;49.72;45.00;;;10.60;99.90;;;;;;7372776;19;20024;-64
2024/04/01 09:01:34;;;;;;;49.60;44.40;;;10.60;99.90;;;;;;7377678;19;20025;-59
2024/04/01 09:04:01;;;;;;;46.17;41.72;;;10.70;99.90;;;;;;7368315;19;20408;-60
2024/04/01 09:06:28;;;;;;;44.53;40.25;;;10.60;99.90;;;;;;7359558;19;20027;-59
2024/04/01 09:08:55;;;;;;;40.13;36.17;;;10.70;99.90;;;;;;7362868;19;20015;-58
2024/04/01 09:11:25;;;;;;;39.63;35.60;;;10.70;99.90;;;;;;7373708;19;20623;-58
2024/04/01 09:13:52;;;;;;;38.60;34.80;;;10.60;99.90;;;;;;7376485;19;20360;-63
2024/04/01 09:16:22;;;;;;;37.75;33.58;;;10.70;99.90;;;;;;7377447;19;20094;-64
2024/04/01 09:19:07;;;;;;;38.08;34.67;;;10.60;99.90;;;;;;7377115;19;20408;-64
2024/04/01 09:21:34;;;;;;;38.53;34.63;;;10.70;99.90;;;;;;7377628;19;20029;-65
2024/04/01 09:24:00;;;;;;;37.58;34.08;;;10.70;99.90;;;;;;7373856;19;20018;-58
2024/04/01 09:26:32;;;;;;;39.50;35.70;;;10.70;99.90;;;;;;7375178;19;20467;-59
2024/04/01 09:28:59;;;;;;;55.17;49.45;;;10.80;99.90;;;;;;7370079;19;20020;-59
2024/04/01 09:31:27;;;;;;;37.95;33.90;;;10.90;99.90;;;;;;7365480;19;20108;-58
2024/04/01 09:33:54;;;;;;;32.17;28.80;;;11.00;99.90;;;;;;7370101;19;20030;-58
2024/04/01 09:36:22;;;;;;;28.38;25.20;;;11.00;99.90;;;;;;7369565;19;20524;-60
2024/04/01 09:38:52;;;;;;;24.77;22.20;;;11.00;99.90;;;;;;7371613;19;20170;-59
2024/04/01 09:41:18;;;;;;;22.95;20.65;;;11.00;99.90;;;;;;7365598;19;20032;-60
2024/04/01 09:43:44;;;;;;;22.75;20.42;;;11.00;99.90;;;;;;7372366;19;20014;-60
2024/04/01 09:46:12;;;;;;;23.05;20.75;;;11.00;99.90;;;;;;7366013;19;20014;-66
2024/04/01 09:48:39;;;;;;;21.80;19.77;;;11.10;99.90;;;;;;7370078;19;20022;-59
2024/04/01 09:51:08;;;;;;;23.02;20.63;;;11.10;99.90;;;;;;7363752;19;20021;-63
2024/04/01 09:53:34;;;;;;;21.17;19.08;;;11.10;99.90;;;;;;7370341;19;20022;-59
2024/04/01 09:56:00;;;;;;;21.40;19.08;;;11.20;99.90;;;;;;7364524;19;20953;-61
2024/04/01 09:58:32;;;;;;;22.08;19.98;;;11.20;99.90;;;;;;7363935;19;20644;-59
2024/04/01 10:01:37;;;;;;;22.88;20.67;;;11.20;99.90;;;;;;7368445;19;20027;-59
2024/04/01 10:04:22;;;;;;;23.73;21.38;;;11.30;99.90;;;;;;7361655;19;20022;-59
2024/04/01 10:07:28;;;;;;;21.40;19.30;;;11.40;99.90;;;;;;7354778;19;20086;-67
2024/04/01 10:10:17;;;;;;;21.85;19.63;;;11.40;99.90;;;;;;7365050;19;20022;-67
2024/04/01 10:13:01;;;;;;;21.65;19.65;;;11.40;99.90;;;;;;7372658;19;20499;-67
2024/04/01 10:15:46;;;;;;;22.00;20.00;;;11.30;99.90;;;;;;7365651;19;20022;-67
2024/04/01 10:18:50;;;;;;;23.45;20.25;;;11.40;99.90;;;;;;7372927;19;20014;-67
2024/04/01 10:21:50;;;;;;;21.98;19.80;;;11.50;99.90;;;;;;7373430;19;20018;-67
2024/04/01 10:24:44;;;;;;;19.50;17.60;;;11.60;99.90;;;;;;7374624;19;20018;-59
2024/04/01 10:27:45;;;;;;;20.35;17.77;;;11.60;99.90;;;;;;7368108;19;20030;-60
2024/04/01 10:30:30;;;;;;;19.05;17.25;;;11.70;99.90;;;;;;7368786;19;20534;-59
2024/04/01 10:33:32;;;;;;;19.75;17.90;;;11.80;99.90;;;;;;7374643;19;20035;-59
2024/04/01 10:36:18;;;;;;;19.73;17.15;;;11.90;99.90;;;;;;7373665;19;20778;-58
2024/04/01 10:39:09;;;;;;;20.13;18.23;;;12.10;99.90;;;;;;7371168;19;20478;-59
2024/04/01 10:42:01;;;;;;;19.50;17.70;;;12.30;99.90;;;;;;7372933;19;20015;-59
2024/04/01 10:44:46;;;;;;;20.30;18.20;;;12.50;99.90;;;;;;7371790;19;20015;-58
2024/04/01 10:47:20;;;;;;;19.77;18.08;;;12.40;99.90;;;;;;7375273;19;20067;-60
2024/04/01 10:49:55;;;;;;;19.45;17.58;;;12.40;99.90;;;;;;7364203;19;20018;-59
2024/04/01 10:52:42;;;;;;;21.63;19.67;;;12.40;99.90;;;;;;7368283;19;20025;-60
2024/04/01 10:55:23;;;;;;;22.42;20.17;;;12.30;99.90;;;;;;7368148;19;20048;-60
2024/04/01 10:57:49;;;;;;;24.10;21.70;;;12.10;99.90;;;;;;7372469;19;20018;-60
2024/04/01 11:00:37;;;;;;;25.75;23.25;;;12.10;99.90;;;;;;7371760;19;20023;-60
2024/04/01 11:03:30;;;;;;;27.23;24.80;;;12.10;99.90;;;;;;7367061;19;20371;-60
2024/04/01 11:05:57;;;;;;;27.38;24.48;;;12.00;99.90;;;;;;7369438;19;20383;-58
2024/04/01 11:08:44;;;;;;;29.00;26.30;;;12.00;99.90;;;;;;7368585;19;20023;-65
2024/04/01 11:11:16;;;;;;;28.77;26.08;;;12.00;99.90;;;;;;7367966;19;20560;-59
2024/04/01 11:13:44;;;;;;;28.58;25.92;;;11.90;99.90;;;;;;7368220;19;20102;-59
2024/04/01 11:16:10;;;;;;;29.10;26.50;;;11.90;99.90;;;;;;7372008;19;20019;-60
2024/04/01 11:19:02;;;;;;;28.48;25.60;;;11.90;99.90;;;;;;7374443;19;20035;-61
2024/04/01 11:21:38;;;;;;;26.92;24.25;;;11.80;99.90;;;;;;7365213;19;20018;-60
2024/04/01 11:24:10;;;;;;;28.10;25.48;;;11.80;99.90;;;;;;7371808;19;20022;-60
2024/04/01 11:26:56;;;;;;;26.73;24.33;;;11.80;99.90;;;;;;7372964;19;20026;-59
2024/04/01 11:30:00;;;;;;;27.83;25.25;;;11.90;99.90;;;;;;7365636;19;20632;-59
2024/04/01 11:32:32;;;;;;;26.33;23.92;;;11.80;99.90;;;;;;7369020;19;20374;-59
2024/04/01 11:35:28;;;;;;;26.63;23.67;;;11.80;99.90;;;;;;7366624;19;20018;-60
2024/04/01 11:38:12;;;;;;;26.08;23.55;;;11.70;99.90;;;;;;7365324;19;20802;-60
2024/04/01 11:40:40;;;;;;;26.20;23.83;;;11.60;99.90;;;;;;7364329;19;20033;-58
2024/04/01 11:43:10;;;;;;;27.13;24.67;;;11.50;99.90;;;;;;7366053;19;20029;-59
2024/04/01 11:45:41;;;;;;;25.90;23.60;;;11.50;99.90;;;;;;7362750;19;20014;-61
2024/04/01 11:48:08;;;;;;;26.17;23.83;;;11.50;99.90;;;;;;7361393;19;20018;-61
2024/04/01 11:50:34;;;;;;;25.30;22.92;;;11.50;99.90;;;;;;7364956;19;20291;-59
2024/04/01 11:53:02;;;;;;;24.98;22.65;;;11.60;99.90;;;;;;7371036;19;20827;-59
2024/04/01 11:55:29;;;;;;;22.85;20.92;;;11.60;99.90;;;;;;7366198;19;20026;-58
2024/04/01 11:58:15;;;;;;;21.48;19.58;;;11.60;99.90;;;;;;7360772;19;20181;-60
2024/04/01 12:00:53;;;;;;;23.52;21.35;;;11.80;99.90;;;;;;7369675;19;20147;-59
2024/04/01 12:03:21;;;;;;;19.60;17.80;;;11.80;99.90;;;;;;7364242;19;20017;-59
2024/04/01 12:05:54;;;;;;;18.65;16.85;;;11.90;99.90;;;;;;7369506;19;20637;-59
2024/04/01 12:08:23;;;;;;;19.40;17.60;;;11.90;99.90;;;;;;7357069;19;20015;-60
2024/04/01 12:10:50;;;;;;;16.02;14.45;;;12.00;99.90;;;;;;7373267;19;20014;-61
2024/04/01 12:13:23;;;;;;;14.75;13.40;;;12.00;99.90;;;;;;7363486;19;20018;-59
2024/04/01 12:15:50;;;;;;;15.05;13.45;;;12.00;99.90;;;;;;7368035;19;20763;-59
2024/04/01 12:18:16;;;;;;;13.52;12.27;;;12.00;99.90;;;;;;7367240;19;20022;-59
2024/04/01 12:20:43;;;;;;;15.25;13.73;;;12.00;99.90;;;;;;7364540;19;20785;-59
2024/04/01 12:23:11;;;;;;;14.43;13.00;;;12.00;99.90;;;;;;7363001;19;20018;-59
2024/04/01 12:25:37;;;;;;;13.48;12.38;;;12.10;99.90;;;;;;7371156;19;20026;-59
2024/04/01 12:28:06;;;;;;;14.38;13.00;;;12.10;99.90;;;;;;7368533;19;20478;-59
2024/04/01 12:30:37;;;;;;;12.30;11.25;;;12.20;99.90;;;;;;7372268;19;20041;-58
2024/04/01 12:33:07;;;;;;;13.13;11.70;;;12.10;99.90;;;;;;7364594;19;20026;-58
2024/04/01 12:35:36;;;;;;;12.43;10.63;;;12.20;99.90;;;;;;7368386;19;20807;-60
2024/04/01 12:38:06;;;;;;;11.95;10.57;;;12.20;99.90;;;;;;7366470;19;20547;-60
2024/04/01 12:40:46;;;;;;;10.68;9.38;;;12.30;99.90;;;;;;7369091;19;20491;-60
2024/04/01 12:43:16;;;;;;;10.95;9.85;;;12.50;99.90;;;;;;7366453;19;20021;-60